Observation data for Olton on 02/13/2018      Previous  Date  Next       Current Mesonet Observations  Soil Data  Daily Summary Page  Observations in Plain Language
KONS 130600Z 11004KT M05/M12 A3024 RMK A01 T10451120  RH  057%=      5-min Rain = 0
KONS 130605Z 10002KT M05/M12 A3024 RMK A01 T10461122  RH  056%=      5-min Rain = 0
KONS 130610Z 08002KT M05/M12 A3024 RMK A01 T10471124  RH  056%=      5-min Rain = 0
KONS 130615Z 08002KT M05/M12 A3024 RMK A01 T10451120  RH  056%=      5-min Rain = 0
KONS 130620Z 10003KT M04/M12 A3024 RMK A01 T10431120  RH  056%=      5-min Rain = 0
KONS 130625Z 10003KT M04/M12 A3025 RMK A01 T10421120  RH  055%=      5-min Rain = 0
KONS 130630Z 09003KT M04/M12 A3025 RMK A01 T10441121  RH  056%=      5-min Rain = 0
KONS 130635Z 08003KT M05/M12 A3025 RMK A01 T10471121  RH  057%=      5-min Rain = 0
KONS 130640Z 06002KT M05/M12 A3025 RMK A01 T10511124  RH  058%=      5-min Rain = 0
KONS 130645Z 05004KT M06/M13 A3025 RMK A01 T10591129  RH  059%=      5-min Rain = 0
KONS 130650Z 06005KT M06/M13 A3025 RMK A01 T10631127  RH  062%=      5-min Rain = 0
KONS 130655Z 07004KT M06/M12 A3025 RMK A01 T10631123  RH  064%=      5-min Rain = 0
KONS 130700Z 07004KT M06/M13 A3025 RMK A01 T10631125  RH  062%=      5-min Rain = 0
KONS 130705Z 07005KT M06/M13 A3025 RMK A01 T10641125  RH  063%=      5-min Rain = 0
KONS 130710Z 08006KT M06/M12 A3025 RMK A01 T10631120  RH  064%=      5-min Rain = 0
KONS 130715Z 09007KT M06/M12 A3025 RMK A01 T10591120  RH  063%=      5-min Rain = 0
KONS 130720Z 09007KT M06/M12 A3024 RMK A01 T10551121  RH  061%=      5-min Rain = 0
KONS 130725Z 09007KT M06/M12 A3024 RMK A01 T10551122  RH  060%=      5-min Rain = 0
KONS 130730Z 10008KT M06/M12 A3024 RMK A01 T10561122  RH  060%=      5-min Rain = 0
KONS 130735Z 09007KT M06/M12 A3024 RMK A01 T10561123  RH  060%=      5-min Rain = 0
KONS 130740Z 08007KT M06/M13 A3024 RMK A01 T10611127  RH  060%=      5-min Rain = 0
KONS 130745Z 09008KT M06/M12 A3023 RMK A01 T10601122  RH  062%=      5-min Rain = 0
KONS 130750Z 09008KT M06/M12 A3023 RMK A01 T10581121  RH  062%=      5-min Rain = 0
KONS 130755Z 09007KT M06/M12 A3023 RMK A01 T10571121  RH  062%=      5-min Rain = 0
KONS 130800Z 09008KT M06/M12 A3023 RMK A01 T10581121  RH  062%=      5-min Rain = 0
KONS 130805Z 10006KT M06/M12 A3023 RMK A01 T10571120  RH  062%=      5-min Rain = 0
KONS 130810Z 09006KT M06/M12 A3024 RMK A01 T10581121  RH  062%=      5-min Rain = 0
KONS 130815Z 09006KT M06/M12 A3024 RMK A01 T10621124  RH  062%=      5-min Rain = 0
KONS 130820Z 09005KT M06/M12 A3023 RMK A01 T10631123  RH  063%=      5-min Rain = 0
KONS 130825Z 08005KT M06/M12 A3023 RMK A01 T10611122  RH  063%=      5-min Rain = 0
KONS 130830Z 10005KT M06/M12 A3023 RMK A01 T10611121  RH  063%=      5-min Rain = 0
KONS 130835Z 11005KT M06/M12 A3023 RMK A01 T10591119  RH  063%=      5-min Rain = 0
KONS 130840Z 10004KT M06/M12 A3023 RMK A01 T10571116  RH  064%=      5-min Rain = 0
KONS 130845Z 09004KT M06/M12 A3023 RMK A01 T10601121  RH  063%=      5-min Rain = 0
KONS 130850Z 08003KT M06/M12 A3023 RMK A01 T10611122  RH  063%=      5-min Rain = 0
KONS 130855Z 08004KT M06/M12 A3023 RMK A01 T10621122  RH  063%=      5-min Rain = 0
KONS 130900Z 07003KT M06/M12 A3023 RMK A01 T10611121  RH  063%=      5-min Rain = 0
KONS 130905Z 08003KT M06/M12 A3023 RMK A01 T10621122  RH  063%=      5-min Rain = 0
KONS 130910Z 04001KT M06/M12 A3023 RMK A01 T10631123  RH  063%=      5-min Rain = 0
KONS 130915Z 32002KT M07/M13 A3024 RMK A01 T10731131  RH  064%=      5-min Rain = 0
KONS 130920Z 34002KT M08/M13 A3024 RMK A01 T10801134  RH  066%=      5-min Rain = 0
KONS 130925Z 34002KT M08/M13 A3024 RMK A01 T10791131  RH  067%=      5-min Rain = 0
KONS 130930Z 34002KT M08/M13 A3024 RMK A01 T10761130  RH  066%=      5-min Rain = 0
KONS 130935Z 31004KT M08/M13 A3024 RMK A01 T10781133  RH  065%=      5-min Rain = 0
KONS 130940Z 31004KT M08/M13 A3025 RMK A01 T10801134  RH  066%=      5-min Rain = 0
KONS 130945Z 32004KT M08/M13 A3024 RMK A01 T10801134  RH  066%=      5-min Rain = 0
KONS 130950Z 32003KT M08/M14 A3024 RMK A01 T10801135  RH  066%=      5-min Rain = 0
KONS 130955Z 33003KT M08/M13 A3024 RMK A01 T10791133  RH  066%=      5-min Rain = 0
KONS 131000Z 33004KT M08/M14 A3024 RMK A01 T10801136  RH  065%=      5-min Rain = 0
KONS 131005Z 33004KT M08/M14 A3025 RMK A01 T10821137  RH  066%=      5-min Rain = 0
KONS 131010Z 34004KT M08/M14 A3025 RMK A01 T10841138  RH  066%=      5-min Rain = 0
KONS 131015Z 35004KT M09/M14 A3025 RMK A01 T10861139  RH  066%=      5-min Rain = 0
KONS 131020Z 35005KT M09/M14 A3024 RMK A01 T10871138  RH  067%=      5-min Rain = 0
KONS 131025Z 02004KT M09/M14 A3024 RMK A01 T10851136  RH  067%=      5-min Rain = 0
KONS 131030Z 03004KT M08/M14 A3024 RMK A01 T10831135  RH  067%=      5-min Rain = 0
KONS 131035Z 03004KT M08/M13 A3024 RMK A01 T10811134  RH  067%=      5-min Rain = 0
KONS 131040Z 03003KT M08/M13 A3024 RMK A01 T10801132  RH  067%=      5-min Rain = 0
KONS 131045Z 05003KT M08/M13 A3024 RMK A01 T10791131  RH  067%=      5-min Rain = 0
KONS 131050Z 05003KT M08/M13 A3023 RMK A01 T10781129  RH  068%=      5-min Rain = 0
KONS 131055Z 05003KT M08/M13 A3023 RMK A01 T10761126  RH  069%=      5-min Rain = 0
KONS 131100Z 04004KT M07/M12 A3023 RMK A01 T10731122  RH  069%=      5-min Rain = 0
KONS 131105Z 04003KT M07/M12 A3023 RMK A01 T10721121  RH  069%=      5-min Rain = 0
KONS 131110Z 06003KT M07/M12 A3023 RMK A01 T10721120  RH  069%=      5-min Rain = 0
KONS 131115Z 05003KT M07/M12 A3023 RMK A01 T10721121  RH  069%=      5-min Rain = 0
KONS 131120Z 04004KT M07/M12 A3023 RMK A01 T10721120  RH  069%=      5-min Rain = 0
KONS 131125Z 05003KT M07/M12 A3023 RMK A01 T10721120  RH  070%=      5-min Rain = 0
KONS 131130Z 06003KT M07/M12 A3023 RMK A01 T10731121  RH  070%=      5-min Rain = 0
KONS 131135Z 05004KT M07/M12 A3024 RMK A01 T10731121  RH  070%=      5-min Rain = 0
KONS 131140Z 04005KT M07/M12 A3024 RMK A01 T10731122  RH  069%=      5-min Rain = 0
KONS 131145Z 05005KT M07/M12 A3024 RMK A01 T10721120  RH  069%=      5-min Rain = 0
KONS 131150Z 05005KT M07/M12 A3023 RMK A01 T10711119  RH  069%=      5-min Rain = 0
KONS 131155Z 06005KT M07/M12 A3023 RMK A01 T10721122  RH  068%=      5-min Rain = 0
KONS 131200Z 06006KT M07/M13 A3024 RMK A01 T10731125  RH  067%=      5-min Rain = 0
KONS 131205Z 06005KT M08/M13 A3024 RMK A01 T10751128  RH  067%=      5-min Rain = 0
KONS 131210Z 06006KT M08/M13 A3024 RMK A01 T10761127  RH  068%=      5-min Rain = 0
KONS 131215Z 06005KT M08/M13 A3024 RMK A01 T10761127  RH  068%=      5-min Rain = 0
KONS 131220Z 04004KT M08/M13 A3025 RMK A01 T10771127  RH  068%=      5-min Rain = 0
KONS 131225Z 01005KT M08/M12 A3025 RMK A01 T10761124  RH  069%=      5-min Rain = 0
KONS 131230Z 03004KT M08/M12 A3025 RMK A01 T10771124  RH  070%=      5-min Rain = 0
KONS 131235Z 05004KT M08/M12 A3025 RMK A01 T10751122  RH  070%=      5-min Rain = 0
KONS 131240Z 05004KT M08/M12 A3025 RMK A01 T10751122  RH  070%=      5-min Rain = 0
KONS 131245Z 05004KT M07/M12 A3026 RMK A01 T10741120  RH  071%=      5-min Rain = 0
KONS 131250Z 05005KT M07/M12 A3026 RMK A01 T10721118  RH  070%=      5-min Rain = 0
KONS 131255Z 06005KT M07/M12 A3026 RMK A01 T10701116  RH  071%=      5-min Rain = 0
KONS 131300Z 05004KT M07/M12 A3026 RMK A01 T10691115  RH  071%=      5-min Rain = 0
KONS 131305Z 05004KT M07/M12 A3026 RMK A01 T10691115  RH  071%=      5-min Rain = 0
KONS 131310Z 06004KT M07/M12 A3026 RMK A01 T10691115  RH  070%=      5-min Rain = 0
KONS 131315Z 06004KT M07/M12 A3026 RMK A01 T10691115  RH  071%=      5-min Rain = 0
KONS 131320Z 03004KT M07/M11 A3026 RMK A01 T10691113  RH  072%=      5-min Rain = 0
KONS 131325Z 03004KT M07/M11 A3026 RMK A01 T10681114  RH  071%=      5-min Rain = 0
KONS 131330Z 04003KT M07/M12 A3026 RMK A01 T10681115  RH  070%=      5-min Rain = 0
KONS 131335Z 04004KT M07/M11 A3026 RMK A01 T10671114  RH  070%=      5-min Rain = 0
KONS 131340Z 04004KT M07/M11 A3027 RMK A01 T10661113  RH  070%=      5-min Rain = 0
KONS 131345Z 03004KT M07/M11 A3026 RMK A01 T10651112  RH  070%=      5-min Rain = 0
KONS 131350Z 02004KT M06/M11 A3027 RMK A01 T10631111  RH  070%=      5-min Rain = 0
KONS 131355Z 02004KT M06/M11 A3027 RMK A01 T10631113  RH  069%=      5-min Rain = 0
KONS 131400Z 02003KT M06/M11 A3027 RMK A01 T10641113  RH  069%=      5-min Rain = 0
KONS 131405Z 04004KT M06/M11 A3027 RMK A01 T10631114  RH  068%=      5-min Rain = 0
KONS 131410Z 05003KT M06/M11 A3027 RMK A01 T10621112  RH  069%=      5-min Rain = 0
KONS 131415Z 08003KT M06/M11 A3027 RMK A01 T10591107  RH  069%=      5-min Rain = 0
KONS 131420Z 08002KT M06/M11 A3027 RMK A01 T10551105  RH  069%=      5-min Rain = 0
KONS 131425Z 09002KT M05/M10 A3027 RMK A01 T10531103  RH  069%=      5-min Rain = 0
KONS 131430Z 10002KT M05/M10 A3028 RMK A01 T10531104  RH  068%=      5-min Rain = 0
KONS 131435Z 03002KT M05/M10 A3029 RMK A01 T10521103  RH  068%=      5-min Rain = 0
KONS 131440Z 02001KT M05/M10 A3029 RMK A01 T10501101  RH  068%=      5-min Rain = 0
KONS 131445Z 04000KT M05/M10 A3029 RMK A01 T10481098  RH  069%=      5-min Rain = 0
KONS 131450Z 04000KT M05/M10 A3029 RMK A01 T10461096  RH  069%=      5-min Rain = 0
KONS 131455Z 07001KT M04/M09 A3029 RMK A01 T10431093  RH  069%=      5-min Rain = 0
KONS 131500Z 07001KT M04/M09 A3029 RMK A01 T10411092  RH  068%=      5-min Rain = 0
KONS 131505Z 10001KT M04/M09 A3029 RMK A01 T10391091  RH  068%=      5-min Rain = 0
KONS 131510Z 11001KT M04/M09 A303 RMK A01 T10361088  RH  068%=      5-min Rain = 0
KONS 131515Z 02000KT M03/M09 A303 RMK A01 T10341086  RH  068%=      5-min Rain = 0
KONS 131520Z 14001KT M03/M08 A303 RMK A01 T10301083  RH  068%=      5-min Rain = 0
KONS 131525Z 13001KT M03/M08 A303 RMK A01 T10281082  RH  067%=      5-min Rain = 0
KONS 131530Z 16000KT M03/M08 A3031 RMK A01 T10261081  RH  066%=      5-min Rain = 0
KONS 131535Z 17000KT M02/M08 A3031 RMK A01 T10221078  RH  066%=      5-min Rain = 0
KONS 131540Z 18001KT M02/M08 A3031 RMK A01 T10181077  RH  065%=      5-min Rain = 0
KONS 131545Z 20002KT M02/M08 A3031 RMK A01 T10161076  RH  064%=      5-min Rain = 0
KONS 131550Z 20003KT M01/M08 A3031 RMK A01 T10141075  RH  064%=      5-min Rain = 0
KONS 131555Z 20003KT M01/M07 A3031 RMK A01 T10121074  RH  064%=      5-min Rain = 0
KONS 131600Z 19003KT M01/M07 A3031 RMK A01 T10101072  RH  064%=      5-min Rain = 0
KONS 131605Z 20002KT M01/M07 A3032 RMK A01 T10081071  RH  063%=      5-min Rain = 0
KONS 131610Z 20005KT M00/M07 A3032 RMK A01 T10041069  RH  062%=      5-min Rain = 0
KONS 131615Z 20005KT M00/M07 A3032 RMK A01 T10011068  RH  061%=      5-min Rain = 0
KONS 131620Z 19005KT 00/M07 A3032 RMK A01 T00021067  RH  061%=      5-min Rain = 0
KONS 131625Z 19004KT 00/M07 A3032 RMK A01 T00031066  RH  060%=      5-min Rain = 0
KONS 131630Z 18005KT 01/M06 A3031 RMK A01 T00061063  RH  060%=      5-min Rain = 0
KONS 131635Z 20005KT 01/M06 A3031 RMK A01 T00121062  RH  058%=      5-min Rain = 0
KONS 131640Z 21006KT 01/M06 A3031 RMK A01 T00141062  RH  057%=      5-min Rain = 0
KONS 131645Z 20005KT 02/M06 A3031 RMK A01 T00171062  RH  057%=      5-min Rain = 0
KONS 131650Z 20005KT 02/M06 A3031 RMK A01 T00201059  RH  056%=      5-min Rain = 0
KONS 131655Z 22007KT 03/M06 A3032 RMK A01 T00311056  RH  053%=      5-min Rain = 0
KONS 131700Z 24005KT 04/M06 A3032 RMK A01 T00361057  RH  051%=      5-min Rain = 0
KONS 131705Z 26004KT 04/M06 A3032 RMK A01 T00391056  RH  051%=      5-min Rain = 0
KONS 131710Z 22005KT 05/M05 A3032 RMK A01 T00461052  RH  050%=      5-min Rain = 0
KONS 131715Z 23007KT 05/M05 A3031 RMK A01 T00511048  RH  049%=      5-min Rain = 0
KONS 131720Z 23006KT 05/M05 A3031 RMK A01 T00541048  RH  048%=      5-min Rain = 0
KONS 131725Z 21006KT 06/M05 A3031 RMK A01 T00551047  RH  048%=      5-min Rain = 0
KONS 131730Z 23007KT 06/M05 A3031 RMK A01 T00591047  RH  047%=      5-min Rain = 0
KONS 131735Z 23008KT 06/M05 A3031 RMK A01 T00611048  RH  046%=      5-min Rain = 0
KONS 131740Z 22006KT 06/M05 A303 RMK A01 T00621049  RH  046%=      5-min Rain = 0
KONS 131745Z 24007KT 06/M05 A303 RMK A01 T00631049  RH  045%=      5-min Rain = 0
KONS 131750Z 24005G10KT 06/M05 A303 RMK A01 T00631050  RH  045%=      5-min Rain = 0
KONS 131755Z 24005KT 07/M05 A303 RMK A01 T00651051  RH  044%=      5-min Rain = 0
KONS 131800Z 22006KT 07/M05 A3029 RMK A01 T00681049  RH  043%=      5-min Rain = 0
KONS 131805Z 23005G10KT 07/M05 A3029 RMK A01 T00731050  RH  042%=      5-min Rain = 0
KONS 131810Z 25004KT 08/M05 A3029 RMK A01 T00751049  RH  042%=      5-min Rain = 0
KONS 131815Z 26005KT 07/M05 A3028 RMK A01 T00741050  RH  042%=      5-min Rain = 0
KONS 131820Z 26004KT 08/M05 A3028 RMK A01 T00801050  RH  040%=      5-min Rain = 0
KONS 131825Z 25007KT 08/M05 A3028 RMK A01 T00831049  RH  039%=      5-min Rain = 0
KONS 131830Z 23005KT 09/M05 A3028 RMK A01 T00861049  RH  039%=      5-min Rain = 0
KONS 131835Z 23005KT 09/M05 A3028 RMK A01 T00881048  RH  038%=      5-min Rain = 0
KONS 131840Z 22005KT 09/M05 A3028 RMK A01 T00891048  RH  038%=      5-min Rain = 0
KONS 131845Z 22006KT 09/M05 A3027 RMK A01 T00931047  RH  037%=      5-min Rain = 0
KONS 131850Z 22007KT 10/M05 A3027 RMK A01 T00951047  RH  037%=      5-min Rain = 0
KONS 131855Z 21006G12KT 10/M04 A3026 RMK A01 T01001044  RH  036%=      5-min Rain = 0
KONS 131900Z 20007KT 10/M04 A3026 RMK A01 T01041043  RH  036%=      5-min Rain = 0
KONS 131905Z 20008KT 11/M04 A3026 RMK A01 T01071042  RH  035%=      5-min Rain = 0
KONS 131910Z 20007KT 11/M04 A3026 RMK A01 T01091040  RH  035%=      5-min Rain = 0
KONS 131915Z 21007KT 11/M04 A3026 RMK A01 T01111040  RH  035%=      5-min Rain = 0
KONS 131920Z 19008G13KT 12/M04 A3025 RMK A01 T01151040  RH  034%=      5-min Rain = 0
KONS 131925Z 20010KT 12/M04 A3025 RMK A01 T01181038  RH  034%=      5-min Rain = 0
KONS 131930Z 20009G14KT 12/M04 A3025 RMK A01 T01191035  RH  034%=      5-min Rain = 0
KONS 131935Z 21008KT 12/M04 A3025 RMK A01 T01201036  RH  034%=      5-min Rain = 0
KONS 131940Z 20009KT 12/M03 A3025 RMK A01 T01231034  RH  034%=      5-min Rain = 0
KONS 131945Z 19009G14KT 12/M03 A3025 RMK A01 T01231034  RH  034%=      5-min Rain = 0
KONS 131950Z 20008G13KT 12/M04 A3024 RMK A01 T01241035  RH  033%=      5-min Rain = 0
KONS 131955Z 19009KT 13/M03 A3024 RMK A01 T01261034  RH  033%=      5-min Rain = 0
KONS 132000Z 18011KT 13/M03 A3024 RMK A01 T01301034  RH  032%=      5-min Rain = 0
KONS 132005Z 19011KT 13/M03 A3024 RMK A01 T01291034  RH  032%=      5-min Rain = 0
KONS 132010Z 19011KT 13/M03 A3024 RMK A01 T01311033  RH  032%=      5-min Rain = 0
KONS 132015Z 20009KT 13/M03 A3023 RMK A01 T01331033  RH  032%=      5-min Rain = 0
KONS 132020Z 20011KT 14/M03 A3023 RMK A01 T01351032  RH  031%=      5-min Rain = 0
KONS 132025Z 20011KT 14/M03 A3023 RMK A01 T01351032  RH  032%=      5-min Rain = 0
KONS 132030Z 19008G13KT 14/M03 A3023 RMK A01 T01381031  RH  031%=      5-min Rain = 0
KONS 132035Z 19008KT 14/M03 A3022 RMK A01 T01411029  RH  031%=      5-min Rain = 0
KONS 132040Z 17009KT 14/M03 A3022 RMK A01 T01441028  RH  030%=      5-min Rain = 0
KONS 132045Z 18011KT 15/M03 A3022 RMK A01 T01461028  RH  030%=      5-min Rain = 0
KONS 132050Z 17011KT 15/M03 A3022 RMK A01 T01461029  RH  030%=      5-min Rain = 0
KONS 132055Z 18011KT 15/M03 A3022 RMK A01 T01491028  RH  030%=      5-min Rain = 0
KONS 132100Z 18009KT 15/M03 A3022 RMK A01 T01491027  RH  030%=      5-min Rain = 0
KONS 132105Z 19010G15KT 15/M03 A3022 RMK A01 T01511026  RH  030%=      5-min Rain = 0
KONS 132110Z 19010G15KT 15/M02 A3022 RMK A01 T01531023  RH  030%=      5-min Rain = 0
KONS 132115Z 19010G15KT 15/M02 A3022 RMK A01 T01521022  RH  030%=      5-min Rain = 0
KONS 132120Z 19011G16KT 15/M02 A3022 RMK A01 T01531022  RH  030%=      5-min Rain = 0
KONS 132125Z 18011KT 16/M02 A3022 RMK A01 T01551022  RH  030%=      5-min Rain = 0
KONS 132130Z 18011KT 16/M02 A3022 RMK A01 T01571020  RH  030%=      5-min Rain = 0
KONS 132135Z 18011G16KT 16/M02 A3022 RMK A01 T01581019  RH  030%=      5-min Rain = 0
KONS 132140Z 17013G20KT 16/M02 A3022 RMK A01 T01581019  RH  030%=      5-min Rain = 0
KONS 132145Z 18012KT 16/M02 A3022 RMK A01 T01561019  RH  030%=      5-min Rain = 0
KONS 132150Z 17012G18KT 15/M02 A3022 RMK A01 T01541019  RH  031%=      5-min Rain = 0
KONS 132155Z 17013KT 15/M02 A3022 RMK A01 T01541019  RH  031%=      5-min Rain = 0
KONS 132200Z 17013G18KT 15/M02 A3022 RMK A01 T01531015  RH  032%=      5-min Rain = 0
KONS 132205Z 17014KT 15/M02 A3022 RMK A01 T01521015  RH  032%=      5-min Rain = 0
KONS 132210Z 18014KT 15/M01 A3022 RMK A01 T01531013  RH  032%=      5-min Rain = 0
KONS 132215Z 18014KT 15/M01 A3022 RMK A01 T01541011  RH  033%=      5-min Rain = 0
KONS 132220Z 19013KT 16/M01 A3022 RMK A01 T01571010  RH  032%=      5-min Rain = 0
KONS 132225Z 19012KT 16/M01 A3022 RMK A01 T01571009  RH  033%=      5-min Rain = 0
KONS 132230Z 19012KT 16/M01 A3022 RMK A01 T01581007  RH  033%=      5-min Rain = 0
KONS 132235Z 19013G18KT 16/M01 A3022 RMK A01 T01581006  RH  033%=      5-min Rain = 0
KONS 132240Z 18013KT 15/M01 A3022 RMK A01 T01541006  RH  034%=      5-min Rain = 0
KONS 132245Z 18013KT 15/M01 A3022 RMK A01 T01541005  RH  034%=      5-min Rain = 0
KONS 132250Z 19012KT 16/M01 A3022 RMK A01 T01551006  RH  034%=      5-min Rain = 0
KONS 132255Z 19013KT 16/M01 A3021 RMK A01 T01551006  RH  033%=      5-min Rain = 0
KONS 132300Z 19013KT 15/M01 A3021 RMK A01 T01541007  RH  034%=      5-min Rain = 0
KONS 132305Z 18012KT 15/M01 A3021 RMK A01 T01531005  RH  034%=      5-min Rain = 0
KONS 132310Z 18012KT 15/M00 A3022 RMK A01 T01501002  RH  036%=      5-min Rain = 0
KONS 132315Z 17012KT 15/M00 A3021 RMK A01 T01491004  RH  036%=      5-min Rain = 0
KONS 132320Z 17013KT 15/M00 A3021 RMK A01 T01481004  RH  036%=      5-min Rain = 0
KONS 132325Z 17011KT 15/M00 A3021 RMK A01 T01451002  RH  037%=      5-min Rain = 0
KONS 132330Z 18011G16KT 14/M00 A3021 RMK A01 T01421001  RH  038%=      5-min Rain = 0
KONS 132335Z 18011KT 14/00 A3022 RMK A01 T013900-0  RH  039%=      5-min Rain = 0
KONS 132340Z 18010KT 14/00 A3022 RMK A01 T01370002  RH  040%=      5-min Rain = 0
KONS 132345Z 17011KT 14/00 A3022 RMK A01 T01370001  RH  040%=      5-min Rain = 0
KONS 132350Z 17010KT 14/00 A3022 RMK A01 T01380001  RH  039%=      5-min Rain = 0
KONS 132355Z 17011KT 14/00 A3022 RMK A01 T01390000  RH  039%=      5-min Rain = 0
KONS 140000Z 17011KT 14/00 A3022 RMK A01 T01370001  RH  040%=      5-min Rain = 0
KONS 140005Z 17010KT 13/00 A3022 RMK A01 T01340002  RH  041%=      5-min Rain = 0
KONS 140015Z 16010KT 13/00 A3023 RMK A01 T01270003  RH  043%=      5-min Rain = 0
KONS 140020Z 17009KT 12/00 A3023 RMK A01 T01230003  RH  044%=      5-min Rain = 0
KONS 140025Z 16009KT 12/00 A3023 RMK A01 T01190003  RH  045%=      5-min Rain = 0
KONS 140030Z 16009KT 11/00 A3023 RMK A01 T01140002  RH  047%=      5-min Rain = 0
KONS 140035Z 16008KT 11/00 A3022 RMK A01 T01100002  RH  048%=      5-min Rain = 0
KONS 140040Z 15008KT 11/00 A3022 RMK A01 T01050000  RH  049%=      5-min Rain = 0
KONS 140045Z 15008KT 10/M00 A3022 RMK A01 T01011001  RH  050%=      5-min Rain = 0
KONS 140050Z 15009KT 10/M00 A3022 RMK A01 T00961003  RH  051%=      5-min Rain = 0
KONS 140055Z 16009KT 09/M00 A3022 RMK A01 T00911004  RH  052%=      5-min Rain = 0
KONS 140100Z 16010KT 09/M00 A3022 RMK A01 T00891004  RH  053%=      5-min Rain = 0
KONS 140105Z 16009KT 09/M00 A3023 RMK A01 T00891003  RH  053%=      5-min Rain = 0
KONS 140110Z 16007KT 09/M00 A3023 RMK A01 T00871004  RH  053%=      5-min Rain = 0
KONS 140115Z 16007KT 09/M00 A3023 RMK A01 T00861004  RH  054%=      5-min Rain = 0
KONS 140120Z 16007KT 09/M00 A3023 RMK A01 T00861003  RH  054%=      5-min Rain = 0
KONS 140125Z 17008KT 09/M00 A3023 RMK A01 T00861002  RH  054%=      5-min Rain = 0
KONS 140130Z 17009KT 09/M00 A3023 RMK A01 T00851002  RH  055%=      5-min Rain = 0
KONS 140135Z 17009KT 08/M00 A3023 RMK A01 T00831002  RH  056%=      5-min Rain = 0
KONS 140140Z 17009KT 08/M00 A3023 RMK A01 T00791003  RH  057%=      5-min Rain = 0
KONS 140145Z 17009KT 08/M00 A3023 RMK A01 T00751003  RH  058%=      5-min Rain = 0
KONS 140150Z 17009KT 07/M00 A3023 RMK A01 T00731003  RH  059%=      5-min Rain = 0
KONS 140155Z 17010KT 07/M00 A3023 RMK A01 T00731002  RH  060%=      5-min Rain = 0
KONS 140200Z 17009KT 07/M00 A3023 RMK A01 T00721002  RH  060%=      5-min Rain = 0
KONS 140205Z 17008KT 07/M00 A3023 RMK A01 T00711003  RH  060%=      5-min Rain = 0
KONS 140210Z 17007KT 07/M00 A3024 RMK A01 T00691002  RH  061%=      5-min Rain = 0
KONS 140215Z 17007KT 06/M00 A3024 RMK A01 T00641004  RH  062%=      5-min Rain = 0
KONS 140220Z 17007KT 06/M00 A3024 RMK A01 T00621001  RH  064%=      5-min Rain = 0
KONS 140225Z 17008KT 07/00 A3024 RMK A01 T00650001  RH  064%=      5-min Rain = 0
KONS 140230Z 17008KT 07/00 A3024 RMK A01 T00650001  RH  065%=      5-min Rain = 0
KONS 140235Z 18009KT 06/00 A3024 RMK A01 T00640002  RH  065%=      5-min Rain = 0
KONS 140240Z 18010KT 06/00 A3024 RMK A01 T00620002  RH  066%=      5-min Rain = 0
KONS 140245Z 18010KT 06/01 A3024 RMK A01 T00620005  RH  068%=      5-min Rain = 0
KONS 140250Z 18011KT 06/01 A3024 RMK A01 T00630007  RH  068%=      5-min Rain = 0
KONS 140255Z 18012KT 07/01 A3024 RMK A01 T00670010  RH  067%=      5-min Rain = 0
KONS 140300Z 18011KT 07/01 A3024 RMK A01 T00700010  RH  067%=      5-min Rain = 0
KONS 140305Z 18011KT 07/01 A3024 RMK A01 T00720011  RH  066%=      5-min Rain = 0
KONS 140310Z 18011KT 07/01 A3024 RMK A01 T00710010  RH  066%=      5-min Rain = 0
KONS 140315Z 18012KT 07/01 A3024 RMK A01 T00710011  RH  066%=      5-min Rain = 0
KONS 140320Z 18011KT 07/01 A3024 RMK A01 T00700010  RH  066%=      5-min Rain = 0
KONS 140325Z 18012KT 07/01 A3024 RMK A01 T00680009  RH  067%=      5-min Rain = 0
KONS 140330Z 18013KT 07/01 A3024 RMK A01 T00680009  RH  067%=      5-min Rain = 0
KONS 140335Z 18012KT 07/01 A3024 RMK A01 T00670009  RH  067%=      5-min Rain = 0
KONS 140340Z 18011KT 07/01 A3024 RMK A01 T00660008  RH  067%=      5-min Rain = 0
KONS 140345Z 18011KT 07/01 A3024 RMK A01 T00660008  RH  067%=      5-min Rain = 0
KONS 140350Z 18011KT 07/01 A3024 RMK A01 T00680009  RH  067%=      5-min Rain = 0
KONS 140355Z 18011KT 07/01 A3024 RMK A01 T00710009  RH  066%=      5-min Rain = 0
KONS 140400Z 18012KT 07/01 A3024 RMK A01 T00710009  RH  065%=      5-min Rain = 0
KONS 140405Z 18012KT 07/01 A3024 RMK A01 T00710009  RH  065%=      5-min Rain = 0
KONS 140410Z 18012KT 07/01 A3024 RMK A01 T00720010  RH  066%=      5-min Rain = 0
KONS 140415Z 18012KT 07/01 A3024 RMK A01 T00740010  RH  065%=      5-min Rain = 0
KONS 140420Z 18011KT 07/01 A3024 RMK A01 T00740009  RH  065%=      5-min Rain = 0
KONS 140425Z 18011KT 07/01 A3024 RMK A01 T00730010  RH  065%=      5-min Rain = 0
KONS 140430Z 18012KT 07/01 A3023 RMK A01 T00740011  RH  065%=      5-min Rain = 0
KONS 140435Z 18012KT 08/01 A3024 RMK A01 T00750011  RH  065%=      5-min Rain = 0
KONS 140440Z 18012KT 08/01 A3023 RMK A01 T00760012  RH  065%=      5-min Rain = 0
KONS 140445Z 18011KT 08/01 A3023 RMK A01 T00770012  RH  064%=      5-min Rain = 0
KONS 140450Z 18011KT 08/01 A3023 RMK A01 T00770013  RH  065%=      5-min Rain = 0
KONS 140455Z 18010KT 08/01 A3023 RMK A01 T00770014  RH  065%=      5-min Rain = 0
KONS 140500Z 18010KT 08/02 A3023 RMK A01 T00800015  RH  064%=      5-min Rain = 0
KONS 140505Z 18010KT 08/01 A3023 RMK A01 T00810014  RH  063%=      5-min Rain = 0
KONS 140510Z 18009KT 08/01 A3023 RMK A01 T00810014  RH  063%=      5-min Rain = 0
KONS 140515Z 18009KT 08/01 A3023 RMK A01 T00810013  RH  063%=      5-min Rain = 0
KONS 140520Z 18009KT 08/01 A3023 RMK A01 T00810013  RH  063%=      5-min Rain = 0
KONS 140525Z 17009KT 08/01 A3023 RMK A01 T00800012  RH  063%=      5-min Rain = 0
KONS 140530Z 18008KT 08/01 A3023 RMK A01 T00780012  RH  064%=      5-min Rain = 0
KONS 140535Z 19006KT 07/01 A3023 RMK A01 T00730010  RH  065%=      5-min Rain = 0
KONS 140540Z 19007KT 07/01 A3023 RMK A01 T00690010  RH  066%=      5-min Rain = 0
KONS 140545Z 19007KT 07/01 A3023 RMK A01 T00680009  RH  067%=      5-min Rain = 0
KONS 140550Z 18007KT 07/01 A3023 RMK A01 T00670008  RH  067%=      5-min Rain = 0
KONS 140555Z 19008KT 07/01 A3023 RMK A01 T00660008  RH  068%=      5-min Rain = 0

Page generated in 0.0088 seconds.